sensor_id;sensor_type;location;lat;lon;timestamp;P1;durP1;ratioP1;P2;durP2;ratioP2
13368;SDS011;6753;52.520;13.450;2024-02-21T00:00:03;661.72;;;298.88;;
13368;SDS011;6753;52.520;13.450;2024-02-21T00:00:15;664.53;;;294.52;;
13368;SDS011;6753;52.520;13.450;2024-02-21T00:00:27;674.58;;;297.60;;
13368;SDS011;6753;52.520;13.450;2024-02-21T00:00:39;676.03;;;300.83;;
13368;SDS011;6753;52.520;13.450;2024-02-21T00:00:51;675.55;;;298.65;;
13368;SDS011;6753;52.520;13.450;2024-02-21T00:01:02;670.13;;;293.65;;
13368;SDS011;6753;52.520;13.450;2024-02-21T00:01:14;669.80;;;294.90;;
13368;SDS011;6753;52.520;13.450;2024-02-21T00:01:26;672.83;;;292.63;;
13368;SDS011;6753;52.520;13.450;2024-02-21T00:01:36;684.20;;;294.08;;
13368;SDS011;6753;52.520;13.450;2024-02-21T00:01:47;708.75;;;302.60;;
13368;SDS011;6753;52.520;13.450;2024-02-21T00:01:58;715.23;;;308.73;;
13368;SDS011;6753;52.520;13.450;2024-02-21T00:02:09;724.55;;;310.70;;
13368;SDS011;6753;52.520;13.450;2024-02-21T00:02:20;726.63;;;310.95;;
13368;SDS011;6753;52.520;13.450;2024-02-21T00:02:31;721.90;;;311.23;;
13368;SDS011;6753;52.520;13.450;2024-02-21T00:02:43;709.43;;;308.60;;
13368;SDS011;6753;52.520;13.450;2024-02-21T00:02:54;706.22;;;308.80;;
13368;SDS011;6753;52.520;13.450;2024-02-21T00:03:05;703.83;;;307.67;;
13368;SDS011;6753;52.520;13.450;2024-02-21T00:03:16;691.53;;;306.30;;
13368;SDS011;6753;52.520;13.450;2024-02-21T00:03:26;684.60;;;306.35;;
13368;SDS011;6753;52.520;13.450;2024-02-21T00:03:37;689.87;;;309.40;;
13368;SDS011;6753;52.520;13.450;2024-02-21T00:03:48;688.90;;;309.10;;
13368;SDS011;6753;52.520;13.450;2024-02-21T00:03:58;694.83;;;307.45;;
13368;SDS011;6753;52.520;13.450;2024-02-21T00:04:09;696.30;;;308.30;;
13368;SDS011;6753;52.520;13.450;2024-02-21T00:04:21;708.75;;;310.38;;
13368;SDS011;6753;52.520;13.450;2024-02-21T00:04:31;715.78;;;311.63;;
13368;SDS011;6753;52.520;13.450;2024-02-21T00:04:43;718.00;;;312.05;;
13368;SDS011;6753;52.520;13.450;2024-02-21T00:04:53;715.47;;;313.73;;
13368;SDS011;6753;52.520;13.450;2024-02-21T00:05:04;710.03;;;314.13;;
13368;SDS011;6753;52.520;13.450;2024-02-21T00:05:15;705.47;;;316.08;;
13368;SDS011;6753;52.520;13.450;2024-02-21T00:05:26;696.05;;;313.48;;
13368;SDS011;6753;52.520;13.450;2024-02-21T00:05:37;695.22;;;309.02;;
13368;SDS011;6753;52.520;13.450;2024-02-21T00:05:48;684.00;;;303.15;;
13368;SDS011;6753;52.520;13.450;2024-02-21T00:05:58;668.30;;;299.70;;
13368;SDS011;6753;52.520;13.450;2024-02-21T00:06:10;667.88;;;296.63;;
13368;SDS011;6753;52.520;13.450;2024-02-21T00:06:21;674.97;;;293.38;;
13368;SDS011;6753;52.520;13.450;2024-02-21T00:06:32;676.72;;;297.58;;
13368;SDS011;6753;52.520;13.450;2024-02-21T00:06:42;676.07;;;301.13;;
13368;SDS011;6753;52.520;13.450;2024-02-21T00:06:53;687.50;;;303.15;;
13368;SDS011;6753;52.520;13.450;2024-02-21T00:07:05;694.90;;;305.10;;
13368;SDS011;6753;52.520;13.450;2024-02-21T00:07:15;683.47;;;304.00;;
13368;SDS011;6753;52.520;13.450;2024-02-21T00:07:26;684.58;;;308.20;;
13368;SDS011;6753;52.520;13.450;2024-02-21T00:07:37;688.17;;;308.70;;
13368;SDS011;6753;52.520;13.450;2024-02-21T00:07:49;696.88;;;313.70;;
13368;SDS011;6753;52.520;13.450;2024-02-21T00:07:59;700.70;;;313.67;;
13368;SDS011;6753;52.520;13.450;2024-02-21T00:08:10;702.92;;;316.60;;
13368;SDS011;6753;52.520;13.450;2024-02-21T00:08:21;704.35;;;316.23;;
13368;SDS011;6753;52.520;13.450;2024-02-21T00:08:31;697.10;;;314.40;;
13368;SDS011;6753;52.520;13.450;2024-02-21T00:08:42;701.13;;;315.55;;
13368;SDS011;6753;52.520;13.450;2024-02-21T00:08:53;692.17;;;312.63;;
13368;SDS011;6753;52.520;13.450;2024-02-21T00:09:04;692.00;;;316.03;;
13368;SDS011;6753;52.520;13.450;2024-02-21T00:09:14;689.58;;;312.75;;
13368;SDS011;6753;52.520;13.450;2024-02-21T00:09:25;686.03;;;312.20;;
13368;SDS011;6753;52.520;13.450;2024-02-21T00:09:36;686.20;;;312.77;;
13368;SDS011;6753;52.520;13.450;2024-02-21T00:09:48;685.92;;;310.45;;
13368;SDS011;6753;52.520;13.450;2024-02-21T00:09:59;688.45;;;314.85;;
13368;SDS011;6753;52.520;13.450;2024-02-21T00:10:10;711.90;;;325.77;;
13368;SDS011;6753;52.520;13.450;2024-02-21T00:10:21;702.00;;;319.50;;
13368;SDS011;6753;52.520;13.450;2024-02-21T00:10:32;690.38;;;307.67;;
13368;SDS011;6753;52.520;13.450;2024-02-21T00:10:43;689.45;;;305.90;;
13368;SDS011;6753;52.520;13.450;2024-02-21T00:10:53;699.00;;;308.90;;
13368;SDS011;6753;52.520;13.450;2024-02-21T00:11:04;693.13;;;302.33;;
13368;SDS011;6753;52.520;13.450;2024-02-21T00:11:15;690.97;;;303.02;;
13368;SDS011;6753;52.520;13.450;2024-02-21T00:11:27;688.83;;;302.60;;
13368;SDS011;6753;52.520;13.450;2024-02-21T00:11:38;688.45;;;302.95;;
13368;SDS011;6753;52.520;13.450;2024-02-21T00:11:51;684.45;;;300.95;;
13368;SDS011;6753;52.520;13.450;2024-02-21T00:12:03;678.03;;;297.20;;
13368;SDS011;6753;52.520;13.450;2024-02-21T00:12:15;676.97;;;296.67;;
13368;SDS011;6753;52.520;13.450;2024-02-21T00:12:26;677.15;;;296.45;;
13368;SDS011;6753;52.520;13.450;2024-02-21T00:12:36;681.00;;;298.48;;
13368;SDS011;6753;52.520;13.450;2024-02-21T00:12:47;666.93;;;294.37;;
13368;SDS011;6753;52.520;13.450;2024-02-21T00:12:58;660.33;;;294.70;;
13368;SDS011;6753;52.520;13.450;2024-02-21T00:13:10;665.00;;;295.63;;
13368;SDS011;6753;52.520;13.450;2024-02-21T00:13:21;671.85;;;295.88;;
13368;SDS011;6753;52.520;13.450;2024-02-21T00:13:31;679.90;;;299.80;;
13368;SDS011;6753;52.520;13.450;2024-02-21T00:13:42;677.85;;;298.38;;
13368;SDS011;6753;52.520;13.450;2024-02-21T00:13:53;680.42;;;301.13;;
13368;SDS011;6753;52.520;13.450;2024-02-21T00:14:04;680.20;;;302.48;;
13368;SDS011;6753;52.520;13.450;2024-02-21T00:14:14;674.27;;;301.53;;
13368;SDS011;6753;52.520;13.450;2024-02-21T00:14:25;657.90;;;297.95;;
13368;SDS011;6753;52.520;13.450;2024-02-21T00:14:36;654.70;;;293.63;;
13368;SDS011;6753;52.520;13.450;2024-02-21T00:14:47;664.38;;;294.77;;
13368;SDS011;6753;52.520;13.450;2024-02-21T00:14:59;666.13;;;294.23;;
13368;SDS011;6753;52.520;13.450;2024-02-21T00:15:09;666.65;;;292.13;;
13368;SDS011;6753;52.520;13.450;2024-02-21T00:15:20;672.80;;;293.48;;
13368;SDS011;6753;52.520;13.450;2024-02-21T00:15:31;682.22;;;294.83;;
13368;SDS011;6753;52.520;13.450;2024-02-21T00:15:42;674.97;;;292.52;;
13368;SDS011;6753;52.520;13.450;2024-02-21T00:15:53;676.97;;;294.10;;
13368;SDS011;6753;52.520;13.450;2024-02-21T00:16:04;676.22;;;291.88;;
13368;SDS011;6753;52.520;13.450;2024-02-21T00:16:15;667.63;;;292.80;;
13368;SDS011;6753;52.520;13.450;2024-02-21T00:16:26;657.13;;;291.83;;
13368;SDS011;6753;52.520;13.450;2024-02-21T00:16:37;651.78;;;289.85;;
13368;SDS011;6753;52.520;13.450;2024-02-21T00:16:48;653.33;;;288.05;;
13368;SDS011;6753;52.520;13.450;2024-02-21T00:16:59;653.70;;;286.83;;
13368;SDS011;6753;52.520;13.450;2024-02-21T00:17:09;658.53;;;288.20;;
13368;SDS011;6753;52.520;13.450;2024-02-21T00:17:20;658.38;;;285.67;;
13368;SDS011;6753;52.520;13.450;2024-02-21T00:17:31;673.83;;;289.00;;
13368;SDS011;6753;52.520;13.450;2024-02-21T00:17:43;670.28;;;294.15;;
13368;SDS011;6753;52.520;13.450;2024-02-21T00:17:54;668.63;;;295.70;;
13368;SDS011;6753;52.520;13.450;2024-02-21T00:18:05;669.20;;;298.27;;
13368;SDS011;6753;52.520;13.450;2024-02-21T00:18:16;669.07;;;295.87;;
13368;SDS011;6753;52.520;13.450;2024-02-21T00:18:27;661.38;;;296.20;;
13368;SDS011;6753;52.520;13.450;2024-02-21T00:18:37;654.85;;;293.08;;
13368;SDS011;6753;52.520;13.450;2024-02-21T00:18:49;668.08;;;295.95;;
13368;SDS011;6753;52.520;13.450;2024-02-21T00:19:00;660.03;;;291.93;;
13368;SDS011;6753;52.520;13.450;2024-02-21T00:19:11;667.10;;;294.45;;
13368;SDS011;6753;52.520;13.450;2024-02-21T00:19:21;663.25;;;294.98;;
13368;SDS011;6753;52.520;13.450;2024-02-21T00:19:32;674.87;;;295.27;;
13368;SDS011;6753;52.520;13.450;2024-02-21T00:19:43;670.83;;;293.88;;
13368;SDS011;6753;52.520;13.450;2024-02-21T00:19:54;666.60;;;289.98;;
13368;SDS011;6753;52.520;13.450;2024-02-21T00:20:05;676.13;;;295.37;;
13368;SDS011;6753;52.520;13.450;2024-02-21T00:20:16;672.13;;;292.05;;
13368;SDS011;6753;52.520;13.450;2024-02-21T00:20:27;664.33;;;290.20;;
13368;SDS011;6753;52.520;13.450;2024-02-21T00:20:40;660.22;;;289.77;;
13368;SDS011;6753;52.520;13.450;2024-02-21T00:20:51;654.38;;;291.08;;
13368;SDS011;6753;52.520;13.450;2024-02-21T00:21:01;643.53;;;288.67;;
13368;SDS011;6753;52.520;13.450;2024-02-21T00:21:13;641.15;;;286.25;;
13368;SDS011;6753;52.520;13.450;2024-02-21T00:21:27;651.00;;;286.00;;
13368;SDS011;6753;52.520;13.450;2024-02-21T00:21:38;655.80;;;287.73;;
13368;SDS011;6753;52.520;13.450;2024-02-21T00:21:49;654.38;;;286.55;;
13368;SDS011;6753;52.520;13.450;2024-02-21T00:22:00;656.95;;;289.45;;
13368;SDS011;6753;52.520;13.450;2024-02-21T00:22:10;661.63;;;294.70;;
13368;SDS011;6753;52.520;13.450;2024-02-21T00:22:21;667.92;;;297.92;;
13368;SDS011;6753;52.520;13.450;2024-02-21T00:22:33;656.30;;;296.45;;
13368;SDS011;6753;52.520;13.450;2024-02-21T00:22:43;660.63;;;297.63;;
13368;SDS011;6753;52.520;13.450;2024-02-21T00:22:54;671.78;;;300.08;;
13368;SDS011;6753;52.520;13.450;2024-02-21T00:23:05;669.97;;;295.92;;
13368;SDS011;6753;52.520;13.450;2024-02-21T00:23:16;654.20;;;289.40;;
13368;SDS011;6753;52.520;13.450;2024-02-21T00:23:26;653.88;;;289.45;;
13368;SDS011;6753;52.520;13.450;2024-02-21T00:23:37;653.08;;;288.05;;
13368;SDS011;6753;52.520;13.450;2024-02-21T00:23:48;653.35;;;284.88;;
13368;SDS011;6753;52.520;13.450;2024-02-21T00:24:00;650.30;;;285.30;;
13368;SDS011;6753;52.520;13.450;2024-02-21T00:24:12;651.40;;;285.77;;
13368;SDS011;6753;52.520;13.450;2024-02-21T00:24:23;650.03;;;283.87;;
13368;SDS011;6753;52.520;13.450;2024-02-21T00:24:33;642.33;;;280.00;;
13368;SDS011;6753;52.520;13.450;2024-02-21T00:24:44;630.17;;;276.27;;
13368;SDS011;6753;52.520;13.450;2024-02-21T00:24:55;633.30;;;277.00;;
13368;SDS011;6753;52.520;13.450;2024-02-21T00:25:06;632.15;;;271.52;;
13368;SDS011;6753;52.520;13.450;2024-02-21T00:25:18;632.53;;;270.40;;
13368;SDS011;6753;52.520;13.450;2024-02-21T00:25:30;638.13;;;272.55;;
13368;SDS011;6753;52.520;13.450;2024-02-21T00:25:40;639.35;;;272.13;;
13368;SDS011;6753;52.520;13.450;2024-02-21T00:25:51;635.47;;;272.73;;
13368;SDS011;6753;52.520;13.450;2024-02-21T00:26:03;642.15;;;276.02;;
13368;SDS011;6753;52.520;13.450;2024-02-21T00:26:15;644.25;;;278.90;;
13368;SDS011;6753;52.520;13.450;2024-02-21T00:26:26;653.80;;;281.07;;
13368;SDS011;6753;52.520;13.450;2024-02-21T00:26:37;666.90;;;287.77;;
13368;SDS011;6753;52.520;13.450;2024-02-21T00:26:48;682.38;;;292.33;;
13368;SDS011;6753;52.520;13.450;2024-02-21T00:26:58;682.22;;;292.27;;
13368;SDS011;6753;52.520;13.450;2024-02-21T00:27:09;674.13;;;292.07;;
13368;SDS011;6753;52.520;13.450;2024-02-21T00:27:20;671.35;;;292.05;;
13368;SDS011;6753;52.520;13.450;2024-02-21T00:27:30;666.85;;;288.52;;
13368;SDS011;6753;52.520;13.450;2024-02-21T00:27:42;665.05;;;284.50;;
13368;SDS011;6753;52.520;13.450;2024-02-21T00:27:53;658.83;;;287.77;;
13368;SDS011;6753;52.520;13.450;2024-02-21T00:28:05;669.05;;;290.33;;
13368;SDS011;6753;52.520;13.450;2024-02-21T00:28:16;672.85;;;292.10;;
13368;SDS011;6753;52.520;13.450;2024-02-21T00:28:26;672.10;;;291.10;;
13368;SDS011;6753;52.520;13.450;2024-02-21T00:28:37;675.88;;;297.25;;
13368;SDS011;6753;52.520;13.450;2024-02-21T00:28:48;672.60;;;298.60;;
13368;SDS011;6753;52.520;13.450;2024-02-21T00:28:58;679.65;;;302.02;;
13368;SDS011;6753;52.520;13.450;2024-02-21T00:29:09;684.20;;;302.30;;
13368;SDS011;6753;52.520;13.450;2024-02-21T00:29:20;688.70;;;306.23;;
13368;SDS011;6753;52.520;13.450;2024-02-21T00:29:31;691.75;;;310.88;;
13368;SDS011;6753;52.520;13.450;2024-02-21T00:29:42;702.38;;;314.15;;
13368;SDS011;6753;52.520;13.450;2024-02-21T00:29:53;698.15;;;310.40;;
13368;SDS011;6753;52.520;13.450;2024-02-21T00:30:04;690.25;;;309.55;;
13368;SDS011;6753;52.520;13.450;2024-02-21T00:30:16;684.78;;;310.17;;
13368;SDS011;6753;52.520;13.450;2024-02-21T00:30:26;685.30;;;311.13;;
13368;SDS011;6753;52.520;13.450;2024-02-21T00:30:37;682.92;;;309.20;;
13368;SDS011;6753;52.520;13.450;2024-02-21T00:30:48;676.15;;;305.85;;
13368;SDS011;6753;52.520;13.450;2024-02-21T00:31:00;684.15;;;309.20;;
13368;SDS011;6753;52.520;13.450;2024-02-21T00:31:11;685.60;;;312.23;;
13368;SDS011;6753;52.520;13.450;2024-02-21T00:31:21;695.35;;;312.30;;
13368;SDS011;6753;52.520;13.450;2024-02-21T00:31:33;698.40;;;313.63;;
13368;SDS011;6753;52.520;13.450;2024-02-21T00:31:44;698.20;;;317.05;;
13368;SDS011;6753;52.520;13.450;2024-02-21T00:31:55;696.55;;;316.40;;
13368;SDS011;6753;52.520;13.450;2024-02-21T00:32:06;694.30;;;315.53;;
13368;SDS011;6753;52.520;13.450;2024-02-21T00:32:16;690.83;;;313.65;;
13368;SDS011;6753;52.520;13.450;2024-02-21T00:32:27;686.08;;;311.83;;
13368;SDS011;6753;52.520;13.450;2024-02-21T00:32:38;684.23;;;309.37;;
13368;SDS011;6753;52.520;13.450;2024-02-21T00:32:50;686.28;;;308.25;;
13368;SDS011;6753;52.520;13.450;2024-02-21T00:33:01;683.00;;;302.77;;
13368;SDS011;6753;52.520;13.450;2024-02-21T00:33:12;682.08;;;302.80;;
13368;SDS011;6753;52.520;13.450;2024-02-21T00:33:23;688.88;;;308.23;;
13368;SDS011;6753;52.520;13.450;2024-02-21T00:33:34;687.37;;;306.57;;
13368;SDS011;6753;52.520;13.450;2024-02-21T00:33:45;680.38;;;305.33;;
13368;SDS011;6753;52.520;13.450;2024-02-21T00:33:55;683.55;;;308.75;;
13368;SDS011;6753;52.520;13.450;2024-02-21T00:34:06;683.97;;;311.63;;
13368;SDS011;6753;52.520;13.450;2024-02-21T00:34:17;675.55;;;307.25;;
13368;SDS011;6753;52.520;13.450;2024-02-21T00:34:28;677.08;;;305.30;;
13368;SDS011;6753;52.520;13.450;2024-02-21T00:34:38;685.63;;;306.65;;
13368;SDS011;6753;52.520;13.450;2024-02-21T00:34:49;685.20;;;303.10;;
13368;SDS011;6753;52.520;13.450;2024-02-21T00:35:01;686.45;;;302.00;;
13368;SDS011;6753;52.520;13.450;2024-02-21T00:35:12;692.40;;;299.23;;
13368;SDS011;6753;52.520;13.450;2024-02-21T00:35:24;684.22;;;296.50;;
13368;SDS011;6753;52.520;13.450;2024-02-21T00:35:34;680.33;;;298.95;;
13368;SDS011;6753;52.520;13.450;2024-02-21T00:35:45;680.67;;;300.53;;
13368;SDS011;6753;52.520;13.450;2024-02-21T00:35:56;685.67;;;301.70;;
13368;SDS011;6753;52.520;13.450;2024-02-21T00:36:07;677.58;;;302.67;;
13368;SDS011;6753;52.520;13.450;2024-02-21T00:36:18;677.78;;;303.60;;
13368;SDS011;6753;52.520;13.450;2024-02-21T00:36:29;687.53;;;307.13;;
13368;SDS011;6753;52.520;13.450;2024-02-21T00:36:39;681.77;;;303.03;;
13368;SDS011;6753;52.520;13.450;2024-02-21T00:36:50;677.15;;;306.90;;
13368;SDS011;6753;52.520;13.450;2024-02-21T00:37:02;679.58;;;311.05;;
13368;SDS011;6753;52.520;13.450;2024-02-21T00:37:12;689.50;;;313.40;;
13368;SDS011;6753;52.520;13.450;2024-02-21T00:37:23;685.83;;;310.50;;
13368;SDS011;6753;52.520;13.450;2024-02-21T00:37:34;676.90;;;306.83;;
13368;SDS011;6753;52.520;13.450;2024-02-21T00:37:45;672.30;;;305.67;;
13368;SDS011;6753;52.520;13.450;2024-02-21T00:37:55;676.30;;;302.90;;
13368;SDS011;6753;52.520;13.450;2024-02-21T00:38:07;671.97;;;299.00;;
13368;SDS011;6753;52.520;13.450;2024-02-21T00:38:18;667.87;;;297.60;;
13368;SDS011;6753;52.520;13.450;2024-02-21T00:38:28;670.60;;;302.77;;
13368;SDS011;6753;52.520;13.450;2024-02-21T00:38:39;672.17;;;301.80;;
13368;SDS011;6753;52.520;13.450;2024-02-21T00:38:51;671.05;;;299.52;;
13368;SDS011;6753;52.520;13.450;2024-02-21T00:39:01;680.20;;;302.70;;
13368;SDS011;6753;52.520;13.450;2024-02-21T00:39:12;678.38;;;300.40;;
13368;SDS011;6753;52.520;13.450;2024-02-21T00:39:23;683.03;;;300.67;;
13368;SDS011;6753;52.520;13.450;2024-02-21T00:39:34;682.60;;;301.20;;
13368;SDS011;6753;52.520;13.450;2024-02-21T00:39:45;685.63;;;301.83;;
13368;SDS011;6753;52.520;13.450;2024-02-21T00:39:55;686.17;;;305.55;;
13368;SDS011;6753;52.520;13.450;2024-02-21T00:40:06;684.72;;;306.13;;
13368;SDS011;6753;52.520;13.450;2024-02-21T00:40:18;686.65;;;309.33;;
13368;SDS011;6753;52.520;13.450;2024-02-21T00:40:30;694.78;;;312.67;;
13368;SDS011;6753;52.520;13.450;2024-02-21T00:40:41;701.35;;;312.25;;
13368;SDS011;6753;52.520;13.450;2024-02-21T00:40:52;696.80;;;312.25;;
13368;SDS011;6753;52.520;13.450;2024-02-21T00:41:03;689.05;;;308.65;;
13368;SDS011;6753;52.520;13.450;2024-02-21T00:41:14;685.33;;;306.57;;
13368;SDS011;6753;52.520;13.450;2024-02-21T00:41:25;674.15;;;299.88;;
13368;SDS011;6753;52.520;13.450;2024-02-21T00:41:36;660.75;;;294.65;;
13368;SDS011;6753;52.520;13.450;2024-02-21T00:41:47;655.60;;;293.90;;
13368;SDS011;6753;52.520;13.450;2024-02-21T00:41:57;656.22;;;294.13;;
13368;SDS011;6753;52.520;13.450;2024-02-21T00:42:08;655.20;;;292.13;;
13368;SDS011;6753;52.520;13.450;2024-02-21T00:42:19;668.03;;;295.58;;
13368;SDS011;6753;52.520;13.450;2024-02-21T00:42:29;670.72;;;300.60;;
13368;SDS011;6753;52.520;13.450;2024-02-21T00:42:40;672.90;;;302.83;;
13368;SDS011;6753;52.520;13.450;2024-02-21T00:42:51;675.50;;;304.83;;
13368;SDS011;6753;52.520;13.450;2024-02-21T00:43:02;677.63;;;309.70;;
13368;SDS011;6753;52.520;13.450;2024-02-21T00:43:14;682.45;;;311.90;;
13368;SDS011;6753;52.520;13.450;2024-02-21T00:43:24;684.85;;;310.13;;
13368;SDS011;6753;52.520;13.450;2024-02-21T00:43:35;697.23;;;313.40;;
13368;SDS011;6753;52.520;13.450;2024-02-21T00:43:46;701.65;;;317.73;;
13368;SDS011;6753;52.520;13.450;2024-02-21T00:43:58;704.03;;;316.73;;
13368;SDS011;6753;52.520;13.450;2024-02-21T00:44:09;700.90;;;315.83;;
13368;SDS011;6753;52.520;13.450;2024-02-21T00:44:20;696.20;;;314.98;;
13368;SDS011;6753;52.520;13.450;2024-02-21T00:44:31;690.58;;;315.40;;
13368;SDS011;6753;52.520;13.450;2024-02-21T00:44:41;686.10;;;311.43;;
13368;SDS011;6753;52.520;13.450;2024-02-21T00:44:52;689.92;;;313.35;;
13368;SDS011;6753;52.520;13.450;2024-02-21T00:45:03;691.53;;;314.50;;
13368;SDS011;6753;52.520;13.450;2024-02-21T00:45:16;695.67;;;317.73;;
13368;SDS011;6753;52.520;13.450;2024-02-21T00:45:27;691.88;;;317.85;;
13368;SDS011;6753;52.520;13.450;2024-02-21T00:45:38;705.17;;;324.38;;
13368;SDS011;6753;52.520;13.450;2024-02-21T00:45:49;710.50;;;328.30;;
13368;SDS011;6753;52.520;13.450;2024-02-21T00:45:59;723.60;;;330.50;;
13368;SDS011;6753;52.520;13.450;2024-02-21T00:46:10;720.78;;;329.38;;
13368;SDS011;6753;52.520;13.450;2024-02-21T00:46:21;725.53;;;332.55;;
13368;SDS011;6753;52.520;13.450;2024-02-21T00:46:32;723.77;;;331.77;;
13368;SDS011;6753;52.520;13.450;2024-02-21T00:46:42;721.42;;;330.02;;
13368;SDS011;6753;52.520;13.450;2024-02-21T00:46:53;702.40;;;321.98;;
13368;SDS011;6753;52.520;13.450;2024-02-21T00:47:05;699.50;;;324.15;;
13368;SDS011;6753;52.520;13.450;2024-02-21T00:47:16;699.17;;;326.20;;
13368;SDS011;6753;52.520;13.450;2024-02-21T00:47:27;703.80;;;324.27;;
13368;SDS011;6753;52.520;13.450;2024-02-21T00:47:37;721.80;;;331.50;;
13368;SDS011;6753;52.520;13.450;2024-02-21T00:47:48;731.60;;;336.98;;
13368;SDS011;6753;52.520;13.450;2024-02-21T00:48:00;745.77;;;342.77;;
13368;SDS011;6753;52.520;13.450;2024-02-21T00:48:11;747.47;;;343.90;;
13368;SDS011;6753;52.520;13.450;2024-02-21T00:48:22;754.10;;;346.88;;
13368;SDS011;6753;52.520;13.450;2024-02-21T00:48:32;743.92;;;342.55;;
13368;SDS011;6753;52.520;13.450;2024-02-21T00:48:45;732.90;;;335.63;;
13368;SDS011;6753;52.520;13.450;2024-02-21T00:48:56;725.38;;;330.02;;
13368;SDS011;6753;52.520;13.450;2024-02-21T00:49:06;727.55;;;331.73;;
13368;SDS011;6753;52.520;13.450;2024-02-21T00:49:17;729.50;;;330.23;;
13368;SDS011;6753;52.520;13.450;2024-02-21T00:49:28;731.60;;;331.55;;
13368;SDS011;6753;52.520;13.450;2024-02-21T00:49:39;729.22;;;332.70;;
13368;SDS011;6753;52.520;13.450;2024-02-21T00:49:49;736.88;;;334.10;;
13368;SDS011;6753;52.520;13.450;2024-02-21T00:50:00;738.13;;;335.03;;
13368;SDS011;6753;52.520;13.450;2024-02-21T00:50:11;731.60;;;332.77;;
13368;SDS011;6753;52.520;13.450;2024-02-21T00:50:22;733.30;;;332.88;;
13368;SDS011;6753;52.520;13.450;2024-02-21T00:50:33;735.25;;;336.13;;
13368;SDS011;6753;52.520;13.450;2024-02-21T00:50:44;738.13;;;340.90;;
13368;SDS011;6753;52.520;13.450;2024-02-21T00:50:55;728.00;;;340.92;;
13368;SDS011;6753;52.520;13.450;2024-02-21T00:51:06;740.30;;;344.48;;
13368;SDS011;6753;52.520;13.450;2024-02-21T00:51:16;731.90;;;342.45;;
13368;SDS011;6753;52.520;13.450;2024-02-21T00:51:27;731.33;;;340.17;;
13368;SDS011;6753;52.520;13.450;2024-02-21T00:51:38;729.45;;;337.67;;
13368;SDS011;6753;52.520;13.450;2024-02-21T00:51:49;733.42;;;337.35;;
13368;SDS011;6753;52.520;13.450;2024-02-21T00:52:01;732.67;;;339.83;;
13368;SDS011;6753;52.520;13.450;2024-02-21T00:52:12;737.08;;;341.50;;
13368;SDS011;6753;52.520;13.450;2024-02-21T00:52:22;742.43;;;343.87;;
13368;SDS011;6753;52.520;13.450;2024-02-21T00:52:34;750.30;;;350.75;;
13368;SDS011;6753;52.520;13.450;2024-02-21T00:52:45;757.35;;;353.67;;
13368;SDS011;6753;52.520;13.450;2024-02-21T00:52:56;766.25;;;353.15;;
13368;SDS011;6753;52.520;13.450;2024-02-21T00:53:06;778.57;;;359.67;;
13368;SDS011;6753;52.520;13.450;2024-02-21T00:53:17;786.20;;;356.85;;
13368;SDS011;6753;52.520;13.450;2024-02-21T00:53:28;788.38;;;355.38;;
13368;SDS011;6753;52.520;13.450;2024-02-21T00:53:38;779.33;;;352.50;;
13368;SDS011;6753;52.520;13.450;2024-02-21T00:53:49;782.42;;;357.02;;
13368;SDS011;6753;52.520;13.450;2024-02-21T00:54:00;783.58;;;361.17;;
13368;SDS011;6753;52.520;13.450;2024-02-21T00:54:14;779.63;;;363.08;;
13368;SDS011;6753;52.520;13.450;2024-02-21T00:54:27;782.30;;;370.33;;
13368;SDS011;6753;52.520;13.450;2024-02-21T00:54:38;790.35;;;374.95;;
13368;SDS011;6753;52.520;13.450;2024-02-21T00:54:49;793.93;;;373.37;;
13368;SDS011;6753;52.520;13.450;2024-02-21T00:54:59;787.95;;;373.35;;
13368;SDS011;6753;52.520;13.450;2024-02-21T00:55:10;795.72;;;378.48;;
13368;SDS011;6753;52.520;13.450;2024-02-21T00:55:21;802.93;;;386.23;;
13368;SDS011;6753;52.520;13.450;2024-02-21T00:55:32;807.20;;;385.42;;
13368;SDS011;6753;52.520;13.450;2024-02-21T00:55:42;808.50;;;386.70;;
13368;SDS011;6753;52.520;13.450;2024-02-21T00:55:53;797.45;;;383.98;;
13368;SDS011;6753;52.520;13.450;2024-02-21T00:56:04;794.22;;;381.50;;
13368;SDS011;6753;52.520;13.450;2024-02-21T00:56:16;785.55;;;375.42;;
13368;SDS011;6753;52.520;13.450;2024-02-21T00:56:27;786.00;;;373.83;;
13368;SDS011;6753;52.520;13.450;2024-02-21T00:56:38;782.55;;;373.30;;
13368;SDS011;6753;52.520;13.450;2024-02-21T00:56:48;792.10;;;378.98;;
13368;SDS011;6753;52.520;13.450;2024-02-21T00:56:59;799.90;;;379.15;;
13368;SDS011;6753;52.520;13.450;2024-02-21T00:57:10;799.80;;;376.83;;
13368;SDS011;6753;52.520;13.450;2024-02-21T00:57:23;791.28;;;373.38;;
13368;SDS011;6753;52.520;13.450;2024-02-21T00:57:34;785.45;;;373.10;;
13368;SDS011;6753;52.520;13.450;2024-02-21T00:57:45;776.05;;;371.65;;
13368;SDS011;6753;52.520;13.450;2024-02-21T00:57:55;771.95;;;369.02;;
13368;SDS011;6753;52.520;13.450;2024-02-21T00:58:07;769.20;;;372.00;;
13368;SDS011;6753;52.520;13.450;2024-02-21T00:58:18;765.80;;;370.25;;
13368;SDS011;6753;52.520;13.450;2024-02-21T00:58:29;770.83;;;373.42;;
13368;SDS011;6753;52.520;13.450;2024-02-21T00:58:42;779.95;;;372.90;;
13368;SDS011;6753;52.520;13.450;2024-02-21T00:58:53;772.85;;;370.30;;
13368;SDS011;6753;52.520;13.450;2024-02-21T00:59:04;772.78;;;368.83;;
13368;SDS011;6753;52.520;13.450;2024-02-21T00:59:14;776.77;;;368.10;;
13368;SDS011;6753;52.520;13.450;2024-02-21T00:59:25;774.28;;;370.35;;
13368;SDS011;6753;52.520;13.450;2024-02-21T00:59:36;779.58;;;370.13;;
13368;SDS011;6753;52.520;13.450;2024-02-21T00:59:47;783.70;;;371.13;;
13368;SDS011;6753;52.520;13.450;2024-02-21T00:59:58;788.97;;;367.58;;
13368;SDS011;6753;52.520;13.450;2024-02-21T01:00:10;786.08;;;370.67;;
13368;SDS011;6753;52.520;13.450;2024-02-21T01:00:21;787.03;;;368.73;;
13368;SDS011;6753;52.520;13.450;2024-02-21T01:00:32;785.67;;;370.67;;
13368;SDS011;6753;52.520;13.450;2024-02-21T01:00:46;774.92;;;364.25;;
13368;SDS011;6753;52.520;13.450;2024-02-21T01:00:57;769.33;;;367.30;;
13368;SDS011;6753;52.520;13.450;2024-02-21T01:01:08;777.20;;;370.50;;
13368;SDS011;6753;52.520;13.450;2024-02-21T01:01:21;778.63;;;375.73;;
13368;SDS011;6753;52.520;13.450;2024-02-21T01:01:32;776.90;;;377.00;;
13368;SDS011;6753;52.520;13.450;2024-02-21T01:01:43;787.00;;;381.55;;
13368;SDS011;6753;52.520;13.450;2024-02-21T01:01:54;807.83;;;387.87;;
13368;SDS011;6753;52.520;13.450;2024-02-21T01:02:05;816.13;;;390.88;;
13368;SDS011;6753;52.520;13.450;2024-02-21T01:02:16;820.42;;;385.98;;
13368;SDS011;6753;52.520;13.450;2024-02-21T01:02:27;828.23;;;387.27;;
13368;SDS011;6753;52.520;13.450;2024-02-21T01:02:37;825.35;;;389.65;;